createdAt,value
2018-12-29T00:01:02.539Z,46.57
2018-12-29T00:03:32.776Z,44.00
2018-12-29T00:06:03.147Z,43.80
2018-12-29T00:08:33.740Z,36.47
2018-12-29T00:11:03.813Z,48.20
2018-12-29T00:13:33.821Z,39.87
2018-12-29T00:16:04.098Z,44.97
2018-12-29T00:18:34.250Z,50.40
2018-12-29T00:21:04.379Z,44.50
2018-12-29T00:23:34.392Z,41.57
2018-12-29T00:26:04.396Z,48.07
2018-12-29T00:28:34.647Z,45.63
2018-12-29T00:31:05.695Z,45.27
2018-12-29T00:33:35.503Z,46.83
2018-12-29T00:36:05.487Z,53.23
2018-12-29T00:38:35.446Z,47.97
2018-12-29T00:41:05.700Z,49.87
2018-12-29T00:43:35.771Z,50.03
2018-12-29T00:46:06.040Z,49.73
2018-12-29T00:48:36.125Z,50.67
2018-12-29T00:51:06.164Z,52.73
2018-12-29T00:53:37.956Z,46.70
2018-12-29T00:56:08.464Z,48.73
2018-12-29T00:58:38.987Z,52.27
2018-12-29T01:04:35.973Z,49.13
2018-12-29T01:07:06.710Z,53.70
2018-12-29T01:09:36.787Z,49.20
2018-12-29T01:12:06.877Z,59.67
2018-12-29T01:14:38.595Z,55.70
2018-12-29T01:17:09.054Z,42.30
2018-12-29T01:19:39.395Z,47.80
2018-12-29T01:22:09.743Z,49.83
2018-12-29T01:24:39.912Z,42.93
2018-12-29T01:27:10.293Z,53.00
2018-12-29T01:29:40.433Z,46.50
2018-12-29T01:32:10.186Z,43.97
2018-12-29T01:34:40.124Z,52.07
2018-12-29T01:37:10.462Z,41.40
2018-12-29T01:39:40.621Z,40.50
2018-12-29T01:42:10.736Z,45.93
2018-12-29T01:44:41.119Z,42.03
2018-12-29T01:47:11.195Z,37.40
2018-12-29T01:49:41.269Z,35.83
2018-12-29T01:52:11.677Z,41.27
2018-12-29T01:54:41.823Z,41.63
2018-12-29T01:57:11.684Z,45.27
2018-12-29T01:59:42.088Z,41.40
2018-12-29T02:02:12.426Z,39.67
2018-12-29T02:04:42.968Z,41.03
2018-12-29T02:07:13.119Z,37.53
2018-12-29T02:09:43.564Z,35.03
2018-12-29T02:12:13.573Z,35.67
2018-12-29T02:14:43.791Z,45.00
2018-12-29T02:17:14.054Z,31.70
2018-12-29T02:19:43.983Z,41.83
2018-12-29T02:22:14.360Z,37.07
2018-12-29T02:24:44.478Z,42.50
2018-12-29T02:27:15.204Z,30.53
2018-12-29T02:29:45.608Z,35.23
2018-12-29T02:32:15.612Z,33.33
2018-12-29T02:34:46.919Z,34.70
2018-12-29T02:37:17.203Z,30.50
2018-12-29T02:39:47.240Z,36.67
2018-12-29T02:42:17.251Z,34.63
2018-12-29T02:44:47.775Z,46.97
2018-12-29T02:47:18.575Z,39.83
2018-12-29T02:49:49.235Z,35.60
2018-12-29T02:52:19.315Z,34.70
2018-12-29T02:54:49.595Z,45.40
2018-12-29T02:57:19.562Z,35.90
2018-12-29T02:59:49.605Z,45.20
2018-12-29T03:02:20.880Z,34.13
2018-12-29T03:04:53.255Z,40.60
2018-12-29T03:07:23.897Z,38.03
2018-12-29T03:09:54.257Z,40.10
2018-12-29T03:12:24.312Z,41.93
2018-12-29T03:14:54.163Z,40.97
2018-12-29T03:17:23.931Z,47.30
2018-12-29T03:19:54.109Z,42.73
2018-12-29T03:22:24.263Z,36.93
2018-12-29T03:24:54.512Z,45.20
2018-12-29T03:27:25.206Z,43.50
2018-12-29T03:29:55.493Z,36.63
2018-12-29T03:32:25.466Z,43.67
2018-12-29T03:34:55.840Z,41.03
2018-12-29T03:37:27.802Z,42.20
2018-12-29T03:39:58.170Z,48.80
2018-12-29T03:42:28.581Z,41.93
2018-12-29T03:44:58.605Z,34.43
2018-12-29T03:47:28.634Z,45.93
2018-12-29T03:49:58.802Z,47.83
2018-12-29T03:52:28.902Z,40.97
2018-12-29T03:54:59.457Z,57.93
2018-12-29T03:57:30.690Z,53.17
2018-12-29T04:00:03.366Z,49.03
2018-12-29T04:02:33.354Z,36.03
2018-12-29T04:05:03.557Z,40.47
2018-12-29T04:07:33.749Z,46.47
2018-12-29T04:10:06.231Z,34.60
2018-12-29T04:12:36.631Z,40.07
2018-12-29T04:15:06.839Z,38.40
2018-12-29T04:17:37.101Z,30.43
2018-12-29T04:20:07.314Z,41.77
2018-12-29T04:22:37.236Z,30.50
2018-12-29T04:25:07.630Z,30.30
2018-12-29T04:27:37.665Z,26.37
2018-12-29T04:30:07.781Z,27.60
2018-12-29T04:32:37.804Z,20.33
2018-12-29T04:35:07.856Z,29.37
2018-12-29T04:37:38.249Z,30.47
2018-12-29T04:40:08.459Z,21.17
2018-12-29T04:42:38.973Z,21.73
2018-12-29T04:45:09.350Z,21.57
2018-12-29T04:47:39.725Z,22.33
2018-12-29T04:50:09.894Z,14.17
2018-12-29T04:52:40.012Z,15.90
2018-12-29T04:55:10.890Z,16.02
2018-12-29T04:57:41.213Z,22.23
2018-12-29T05:00:11.200Z,12.13
2018-12-29T05:02:41.354Z,19.90
2018-12-29T05:05:11.477Z,18.10
2018-12-29T05:07:41.855Z,15.13
2018-12-29T05:10:13.447Z,18.00
2018-12-29T05:12:43.738Z,15.20
2018-12-29T05:15:14.274Z,13.17
2018-12-29T05:17:44.349Z,17.07
2018-12-29T05:20:14.711Z,15.00
2018-12-29T05:22:44.611Z,14.43
2018-12-29T05:25:15.055Z,12.47
2018-12-29T05:27:47.150Z,10.87
2018-12-29T05:30:17.378Z,17.53
2018-12-29T05:32:47.418Z,13.13
2018-12-29T05:35:17.528Z,12.13
2018-12-29T05:37:47.814Z,16.70
2018-12-29T05:40:17.821Z,10.00
2018-12-29T05:42:48.126Z,13.33
2018-12-29T05:45:18.251Z,14.60
2018-12-29T05:47:48.533Z,14.60
2018-12-29T05:50:19.154Z,10.03
2018-12-29T05:52:49.966Z,10.37
2018-12-29T05:55:20.183Z,11.57
2018-12-29T05:57:50.274Z,15.67
2018-12-29T06:00:20.443Z,12.13
2018-12-29T06:02:50.703Z,18.17
2018-12-29T06:05:20.762Z,14.93
2018-12-29T06:07:51.339Z,16.07
2018-12-29T06:10:21.190Z,15.60
2018-12-29T06:12:51.397Z,14.10
2018-12-29T06:15:21.483Z,16.43
2018-12-29T06:17:51.898Z,11.50
2018-12-29T06:20:21.944Z,14.63
2018-12-29T06:22:52.688Z,13.03
2018-12-29T06:25:24.392Z,11.67
2018-12-29T06:27:54.873Z,8.50
2018-12-29T06:30:25.147Z,11.67
2018-12-29T06:32:55.702Z,13.50
2018-12-29T06:35:26.443Z,16.37
2018-12-29T06:37:57.136Z,13.07
2018-12-29T06:40:27.192Z,11.13
2018-12-29T06:42:57.128Z,15.33
2018-12-29T06:45:27.212Z,15.70
2018-12-29T06:47:57.230Z,15.57
2018-12-29T06:50:27.449Z,11.93
2018-12-29T06:52:57.545Z,9.07
2018-12-29T06:55:27.707Z,15.03
2018-12-29T06:57:58.465Z,14.63
2018-12-29T07:00:28.769Z,15.63
2018-12-29T07:02:59.050Z,14.83
2018-12-29T07:05:29.279Z,10.73
2018-12-29T07:07:59.236Z,18.00
2018-12-29T07:10:29.440Z,18.90
2018-12-29T07:12:59.636Z,17.77
2018-12-29T07:15:29.816Z,11.10
2018-12-29T07:18:00.140Z,11.47
2018-12-29T07:20:30.503Z,16.20
2018-12-29T07:23:00.580Z,12.20
2018-12-29T07:25:30.545Z,10.07
2018-12-29T07:28:00.903Z,15.27
2018-12-29T07:30:32.260Z,18.53
2018-12-29T07:33:02.505Z,10.70
2018-12-29T07:35:32.822Z,17.73
2018-12-29T07:38:02.854Z,22.60
2018-12-29T07:40:33.216Z,16.03
2018-12-29T07:43:03.445Z,16.67
2018-12-29T07:45:33.628Z,13.03
2018-12-29T07:48:03.794Z,7.03
2018-12-29T07:50:33.798Z,16.50
2018-12-29T07:53:03.688Z,16.30
2018-12-29T07:55:33.933Z,10.73
2018-12-29T07:58:04.001Z,17.13
2018-12-29T08:00:34.007Z,14.87
2018-12-29T08:03:06.021Z,19.17
2018-12-29T08:05:36.042Z,11.27
2018-12-29T08:08:08.352Z,13.97
2018-12-29T08:10:38.854Z,19.13
2018-12-29T08:13:09.125Z,14.50
2018-12-29T08:15:40.824Z,13.07
2018-12-29T08:18:10.975Z,14.70
2018-12-29T08:20:41.474Z,13.17
2018-12-29T08:23:12.931Z,15.77
2018-12-29T08:25:43.271Z,15.93
2018-12-29T08:28:13.473Z,10.67
2018-12-29T08:30:43.717Z,10.33
2018-12-29T08:33:13.717Z,6.33
2018-12-29T08:35:43.900Z,13.53
2018-12-29T08:38:14.145Z,10.53
2018-12-29T08:40:44.174Z,10.73
2018-12-29T08:43:14.204Z,8.27
2018-12-29T08:45:45.787Z,15.57
2018-12-29T08:48:16.082Z,5.93
2018-12-29T08:50:46.213Z,14.03
2018-12-29T08:53:16.845Z,18.80
2018-12-29T08:55:47.471Z,16.67
2018-12-29T08:58:18.036Z,11.67
2018-12-29T09:00:48.257Z,12.90
2018-12-29T09:03:18.389Z,14.37
2018-12-29T09:05:48.482Z,11.30
2018-12-29T09:08:18.717Z,12.67
2018-12-29T09:10:48.929Z,16.20
2018-12-29T09:13:19.292Z,11.97
2018-12-29T09:15:49.549Z,12.77
2018-12-29T09:18:19.929Z,11.67
2018-12-29T09:20:50.222Z,12.17
2018-12-29T09:23:20.254Z,13.93
2018-12-29T09:25:50.198Z,11.47
2018-12-29T09:28:20.520Z,14.50
2018-12-29T09:30:51.500Z,11.33
2018-12-29T09:33:21.692Z,24.57
2018-12-29T09:35:51.949Z,9.73
2018-12-29T09:38:21.994Z,11.30
2018-12-29T09:40:52.950Z,14.13
2018-12-29T09:43:23.368Z,16.13
2018-12-29T09:45:53.859Z,11.90
2018-12-29T09:48:25.878Z,8.77
2018-12-29T09:50:56.207Z,9.10
2018-12-29T09:53:26.505Z,10.07
2018-12-29T09:55:57.953Z,13.93
2018-12-29T09:58:28.640Z,8.10
2018-12-29T10:01:01.931Z,10.13
2018-12-29T10:03:32.749Z,11.40
2018-12-29T10:06:03.075Z,12.37
2018-12-29T10:08:33.414Z,9.00
2018-12-29T10:11:03.430Z,9.77
2018-12-29T10:13:33.294Z,11.03
2018-12-29T10:16:03.367Z,6.70
2018-12-29T10:18:33.383Z,8.23
2018-12-29T10:21:03.880Z,7.43
2018-12-29T10:23:33.966Z,8.03
2018-12-29T10:26:04.093Z,6.83
2018-12-29T10:28:34.002Z,8.50
2018-12-29T10:31:04.270Z,5.83
2018-12-29T10:33:34.261Z,9.13
2018-12-29T10:36:04.448Z,8.37
2018-12-29T10:38:34.445Z,8.33
2018-12-29T10:41:04.518Z,10.43
2018-12-29T10:43:34.771Z,12.67
2018-12-29T10:46:05.099Z,9.80
2018-12-29T10:48:35.252Z,9.80
2018-12-29T10:51:05.250Z,10.67
2018-12-29T10:53:35.407Z,7.50
2018-12-29T10:56:05.629Z,5.50
2018-12-29T10:58:35.791Z,10.70
2018-12-29T11:01:05.987Z,11.77
2018-12-29T11:03:36.217Z,10.77
2018-12-29T11:06:06.629Z,9.63
2018-12-29T11:08:36.743Z,11.17
2018-12-29T11:11:07.228Z,8.57
2018-12-29T11:13:37.800Z,15.17
2018-12-29T11:16:08.159Z,17.53
2018-12-29T11:18:38.419Z,9.60
2018-12-29T11:21:08.878Z,17.47
2018-12-29T11:23:38.968Z,9.60
2018-12-29T11:26:09.136Z,12.27
2018-12-29T11:28:39.842Z,9.77
2018-12-29T11:31:10.209Z,13.53
2018-12-29T11:33:40.765Z,13.53
2018-12-29T11:36:11.215Z,15.30
2018-12-29T11:38:41.262Z,13.77
2018-12-29T11:41:11.548Z,16.87
2018-12-29T11:43:41.839Z,17.37
2018-12-29T11:46:13.325Z,13.77
2018-12-29T11:48:43.458Z,15.00
2018-12-29T11:51:13.911Z,18.90
2018-12-29T11:53:46.190Z,18.67
2018-12-29T11:56:17.135Z,17.93
2018-12-29T11:58:47.337Z,15.97
2018-12-29T12:01:18.327Z,18.67
2018-12-29T12:03:48.524Z,17.07
2018-12-29T12:06:18.638Z,17.53
2018-12-29T12:08:49.059Z,21.43
2018-12-29T12:11:19.227Z,21.70
2018-12-29T12:13:49.341Z,18.10
2018-12-29T12:16:19.554Z,20.23
2018-12-29T12:18:49.716Z,20.97
2018-12-29T12:21:19.921Z,22.10
2018-12-29T12:23:50.473Z,21.97
2018-12-29T12:26:20.588Z,20.13
2018-12-29T12:28:50.924Z,18.93
2018-12-29T12:31:21.306Z,20.93
2018-12-29T12:33:51.501Z,24.17
2018-12-29T12:36:21.991Z,24.93
2018-12-29T12:38:53.239Z,24.50
2018-12-29T12:41:24.812Z,22.43
2018-12-29T12:43:55.799Z,28.70
2018-12-29T12:46:26.091Z,26.27
2018-12-29T12:48:58.311Z,25.10
2018-12-29T12:51:28.528Z,26.67
2018-12-29T12:53:58.866Z,31.33
2018-12-29T12:56:29.074Z,27.20
2018-12-29T12:58:59.303Z,24.70
2018-12-29T13:01:31.465Z,28.43
2018-12-29T13:04:01.742Z,26.67
2018-12-29T13:06:31.746Z,24.07
2018-12-29T13:09:01.987Z,29.27
2018-12-29T13:11:32.022Z,26.67
2018-12-29T13:14:02.285Z,30.60
2018-12-29T13:16:32.641Z,28.80
2018-12-29T13:19:02.808Z,29.20
2018-12-29T13:21:33.291Z,31.37
2018-12-29T13:24:03.645Z,33.97
2018-12-29T13:26:33.945Z,30.97
2018-12-29T13:29:04.131Z,33.07
2018-12-29T13:31:34.138Z,33.17
2018-12-29T13:34:04.191Z,33.20
2018-12-29T13:36:34.383Z,34.93
2018-12-29T13:39:06.711Z,30.53
2018-12-29T13:41:36.601Z,40.27
2018-12-29T13:44:07.327Z,38.50
2018-12-29T13:46:37.322Z,37.00
2018-12-29T13:49:07.415Z,34.80
2018-12-29T13:51:37.907Z,37.23
2018-12-29T13:54:08.770Z,36.40
2018-12-29T13:56:38.856Z,35.00
2018-12-29T13:59:09.192Z,35.20
2018-12-29T14:01:40.294Z,36.77
2018-12-29T14:04:10.732Z,37.07
2018-12-29T14:06:41.127Z,38.10
2018-12-29T14:09:11.532Z,38.63
2018-12-29T14:11:41.998Z,34.57
2018-12-29T14:14:12.184Z,32.07
2018-12-29T14:16:42.655Z,34.30
2018-12-29T14:19:13.125Z,39.20
2018-12-29T14:21:44.126Z,34.63
2018-12-29T14:24:14.829Z,35.30
2018-12-29T14:26:45.193Z,39.07
2018-12-29T14:29:15.808Z,35.80
2018-12-29T14:31:46.488Z,38.07
2018-12-29T14:34:16.704Z,41.30
2018-12-29T14:36:47.039Z,38.93
2018-12-29T14:39:16.867Z,38.17
2018-12-29T14:41:50.818Z,35.57
2018-12-29T14:44:21.336Z,38.87
2018-12-29T14:46:51.849Z,36.70
2018-12-29T14:49:22.926Z,42.27
2018-12-29T14:51:54.768Z,39.57
2018-12-29T14:54:25.235Z,37.90
2018-12-29T14:56:55.844Z,44.10
2018-12-29T14:59:26.202Z,40.63
2018-12-29T15:01:56.288Z,39.53
2018-12-29T15:04:26.226Z,38.83
2018-12-29T15:06:56.552Z,37.37
2018-12-29T15:09:26.510Z,36.80
2018-12-29T15:12:00.102Z,43.43
2018-12-29T15:14:30.923Z,41.70
2018-12-29T15:17:01.014Z,41.10
2018-12-29T15:19:31.178Z,35.17
2018-12-29T15:22:01.854Z,32.47
2018-12-29T15:24:31.837Z,38.73
2018-12-29T15:27:01.844Z,39.93
2018-12-29T15:29:32.499Z,39.20
2018-12-29T15:32:03.221Z,33.73
2018-12-29T15:34:35.265Z,37.30
2018-12-29T15:37:06.127Z,34.60
2018-12-29T15:39:36.763Z,34.10
2018-12-29T15:42:07.275Z,31.50
2018-12-29T15:44:37.870Z,34.73
2018-12-29T15:47:08.471Z,36.50
2018-12-29T15:49:39.077Z,29.80
2018-12-29T15:52:09.363Z,33.00
2018-12-29T15:54:40.254Z,32.37
2018-12-29T15:57:10.716Z,29.70
2018-12-29T15:59:41.552Z,32.97
2018-12-29T16:02:12.136Z,28.90
2018-12-29T16:04:42.471Z,25.63
2018-12-29T16:09:38.745Z,26.37
2018-12-29T16:12:09.360Z,28.03
2018-12-29T16:14:39.825Z,21.90
2018-12-29T16:17:10.609Z,23.00
2018-12-29T16:19:40.623Z,23.73
2018-12-29T16:22:11.353Z,24.70
2018-12-29T16:24:42.824Z,21.73
2018-12-29T16:27:13.142Z,20.07
2018-12-29T16:29:43.823Z,18.30
2018-12-29T16:32:13.847Z,19.83
2018-12-29T16:34:44.124Z,20.57
2018-12-29T16:37:15.131Z,22.73
2018-12-29T16:39:46.067Z,23.17
2018-12-29T16:42:16.450Z,21.50
2018-12-29T16:44:46.770Z,19.83
2018-12-29T16:47:17.526Z,20.57
2018-12-29T16:49:48.888Z,17.80
2018-12-29T16:52:19.165Z,18.10
2018-12-29T16:54:49.265Z,17.80
2018-12-29T16:57:19.653Z,17.30
2018-12-29T16:59:50.894Z,16.33
2018-12-29T17:02:21.876Z,16.97
2018-12-29T17:04:52.507Z,16.67
2018-12-29T17:07:22.996Z,18.10
2018-12-29T17:09:53.631Z,16.97
2018-12-29T17:12:24.146Z,16.20
2018-12-29T17:14:55.197Z,18.70
2018-12-29T17:17:25.494Z,20.90
2018-12-29T17:19:55.996Z,16.90
2018-12-29T17:22:26.677Z,19.43
2018-12-29T17:24:57.049Z,17.90
2018-12-29T17:27:27.384Z,20.87
2018-12-29T17:29:59.668Z,19.40
2018-12-29T17:32:30.038Z,20.40
2018-12-29T17:35:00.682Z,26.60
2018-12-29T17:37:31.147Z,25.60
2018-12-29T17:40:02.615Z,25.10
2018-12-29T17:42:33.972Z,22.50
2018-12-29T17:45:05.615Z,25.70
2018-12-29T17:47:36.359Z,25.13
2018-12-29T17:50:07.698Z,28.12
2018-12-29T17:52:38.097Z,22.57
2018-12-29T17:55:08.629Z,31.20
2018-12-29T17:57:38.960Z,30.70
2018-12-29T18:00:09.377Z,27.70
2018-12-29T18:02:39.576Z,31.10
2018-12-29T18:05:10.070Z,24.10
2018-12-29T18:07:40.561Z,24.27
2018-12-29T18:10:11.219Z,25.73
2018-12-29T18:12:41.473Z,25.63
2018-12-29T18:15:11.844Z,21.17
2018-12-29T18:17:42.385Z,22.67
2018-12-29T18:20:12.619Z,22.87
2018-12-29T18:22:43.141Z,25.33
2018-12-29T18:25:13.709Z,17.37
2018-12-29T18:27:44.232Z,22.67
2018-12-29T18:30:14.615Z,27.17
2018-12-29T18:32:44.627Z,21.80
2018-12-29T18:35:14.613Z,23.77
2018-12-29T18:37:44.677Z,23.63
2018-12-29T18:40:14.951Z,20.43
2018-12-29T18:42:46.619Z,23.60
2018-12-29T18:45:16.729Z,23.47
2018-12-29T18:47:46.949Z,15.53
2018-12-29T18:50:17.176Z,18.63
2018-12-29T18:52:47.786Z,16.93
2018-12-29T18:55:18.065Z,16.30
2018-12-29T18:57:48.521Z,13.87
2018-12-29T19:00:18.700Z,12.97
2018-12-29T19:02:49.135Z,13.33
2018-12-29T19:05:19.276Z,10.93
2018-12-29T19:07:49.832Z,13.43
2018-12-29T19:10:20.220Z,10.87
2018-12-29T19:12:51.706Z,11.97
2018-12-29T19:15:22.203Z,12.73
2018-12-29T19:17:53.259Z,13.80
2018-12-29T19:20:24.428Z,16.37
2018-12-29T19:22:55.180Z,15.77
2018-12-29T19:25:25.770Z,18.93
2018-12-29T19:27:56.145Z,23.07
2018-12-29T19:30:27.173Z,15.37
2018-12-29T19:32:57.692Z,16.83
2018-12-29T19:35:27.771Z,24.60
2018-12-29T19:37:58.018Z,16.77
2018-12-29T19:40:28.333Z,20.30
2018-12-29T19:42:59.203Z,15.97
2018-12-29T19:45:30.050Z,22.03
2018-12-29T19:48:00.745Z,29.90
2018-12-29T19:50:31.077Z,19.57
2018-12-29T19:53:01.581Z,24.37
2018-12-29T19:55:31.815Z,27.20
2018-12-29T19:58:01.918Z,31.30
2018-12-29T20:00:33.732Z,17.63
2018-12-29T20:03:04.214Z,23.20
2018-12-29T20:05:34.703Z,23.43
2018-12-29T20:08:05.192Z,19.97
2018-12-29T20:10:35.516Z,11.80
2018-12-29T20:13:06.237Z,16.37
2018-12-29T20:15:37.027Z,14.20
2018-12-29T20:18:07.204Z,14.87
2018-12-29T20:20:37.435Z,15.50
2018-12-29T20:23:07.712Z,12.87
2018-12-29T20:25:38.037Z,10.33
2018-12-29T20:28:07.976Z,10.23
2018-12-29T20:30:38.438Z,12.40
2018-12-29T20:33:08.962Z,16.03
2018-12-29T20:35:40.335Z,8.83
2018-12-29T20:38:10.967Z,7.97
2018-12-29T20:40:41.511Z,10.67
2018-12-29T20:43:11.954Z,6.03
2018-12-29T20:45:42.899Z,9.53
2018-12-29T20:48:13.522Z,5.70
2018-12-29T20:50:43.839Z,6.63
2018-12-29T20:53:14.277Z,7.67
2018-12-29T20:55:45.000Z,6.07
2018-12-29T20:58:15.385Z,6.83
2018-12-29T21:00:45.719Z,8.17
2018-12-29T21:03:16.652Z,9.07
2018-12-29T21:08:42.426Z,5.47
2018-12-29T21:11:13.195Z,5.90
2018-12-29T21:13:43.480Z,5.47
2018-12-29T21:16:13.422Z,4.17
2018-12-29T21:18:43.723Z,4.30
2018-12-29T21:21:13.781Z,3.13
2018-12-29T21:23:43.811Z,4.43
2018-12-29T21:26:15.072Z,2.87
2018-12-29T21:28:45.550Z,4.57
2018-12-29T21:31:15.979Z,3.27
2018-12-29T21:33:46.382Z,7.90
2018-12-29T21:36:16.930Z,4.00
2018-12-29T21:38:47.914Z,9.87
2018-12-29T21:41:18.678Z,8.13
2018-12-29T21:43:49.258Z,5.13
2018-12-29T21:46:19.952Z,8.53
2018-12-29T21:48:50.854Z,8.33
2018-12-29T21:51:21.510Z,7.47
2018-12-29T21:53:51.924Z,10.13
2018-12-29T21:56:22.496Z,8.93
2018-12-29T21:58:52.721Z,10.70
2018-12-29T22:01:22.932Z,14.97
2018-12-29T22:03:53.015Z,15.43
2018-12-29T22:06:23.764Z,9.20
2018-12-29T22:08:55.022Z,12.27
2018-12-29T22:11:25.163Z,12.07
2018-12-29T22:13:55.259Z,5.37
2018-12-29T22:16:25.630Z,10.40
2018-12-29T22:18:55.977Z,7.00
2018-12-29T22:21:26.050Z,7.93
2018-12-29T22:23:56.062Z,9.37
2018-12-29T22:26:26.493Z,7.23
2018-12-29T22:28:57.226Z,6.43
2018-12-29T22:31:27.412Z,6.90
2018-12-29T22:33:57.612Z,5.20
2018-12-29T22:36:29.992Z,7.67
2018-12-29T22:39:00.413Z,9.70
2018-12-29T22:41:30.387Z,7.40
2018-12-29T22:44:00.426Z,8.27
2018-12-29T22:46:30.641Z,5.87
2018-12-29T22:49:00.958Z,4.13
2018-12-29T22:51:31.085Z,6.30
2018-12-29T22:54:01.609Z,6.43
2018-12-29T22:56:31.905Z,4.53
2018-12-29T22:59:02.024Z,3.90
2018-12-29T23:01:32.075Z,6.73
2018-12-29T23:04:02.314Z,4.73
2018-12-29T23:06:32.474Z,6.37
2018-12-29T23:09:04.086Z,5.27
2018-12-29T23:11:34.059Z,5.53
2018-12-29T23:14:04.483Z,6.47
2018-12-29T23:16:34.845Z,4.90
2018-12-29T23:19:05.069Z,4.20
2018-12-29T23:21:35.098Z,3.37
2018-12-29T23:24:05.480Z,3.67
2018-12-29T23:26:35.606Z,6.03
2018-12-29T23:29:06.043Z,4.07
2018-12-29T23:31:36.336Z,5.93
2018-12-29T23:34:06.438Z,3.90
2018-12-29T23:36:36.715Z,5.53
2018-12-29T23:39:07.249Z,5.10
2018-12-29T23:41:37.576Z,5.23
2018-12-29T23:44:07.761Z,6.73
2018-12-29T23:46:38.331Z,4.77
2018-12-29T23:49:08.755Z,9.20
2018-12-29T23:51:38.793Z,5.57
2018-12-29T23:54:09.200Z,6.13
2018-12-29T23:56:39.387Z,7.13
2018-12-29T23:59:11.375Z,7.97
